createdAt,value
2018-10-21T00:00:18.416Z,0
2018-10-21T00:01:18.188Z,0
2018-10-21T00:02:18.116Z,0
2018-10-21T00:03:18.262Z,0
2018-10-21T00:04:17.653Z,0
2018-10-21T00:05:17.888Z,0
2018-10-21T00:06:18.115Z,0
2018-10-21T00:07:17.634Z,0
2018-10-21T00:08:18.092Z,0
2018-10-21T00:09:18.607Z,0
2018-10-21T00:10:18.058Z,0
2018-10-21T00:11:17.329Z,0
2018-10-21T00:12:17.297Z,0
2018-10-21T00:13:18.081Z,0
2018-10-21T00:14:18.029Z,0
2018-10-21T00:15:18.381Z,0
2018-10-21T00:16:17.988Z,0
2018-10-21T00:17:18.012Z,0
2018-10-21T00:18:17.988Z,0
2018-10-21T00:19:18.018Z,0
2018-10-21T00:20:17.471Z,0
2018-10-21T00:21:18.142Z,0
2018-10-21T00:22:17.181Z,0
2018-10-21T00:23:17.915Z,0
2018-10-21T00:24:17.685Z,0
2018-10-21T00:25:17.921Z,0
2018-10-21T00:26:17.422Z,0
2018-10-21T00:27:18.048Z,0
2018-10-21T00:28:17.384Z,0
2018-10-21T00:29:17.597Z,0
2018-10-21T00:30:17.887Z,0
2018-10-21T00:31:18.081Z,0
2018-10-21T00:32:17.343Z,0
2018-10-21T00:33:17.758Z,0
2018-10-21T00:34:17.553Z,0
2018-10-21T00:35:17.579Z,0
2018-10-21T00:36:17.813Z,0
2018-10-21T00:37:17.795Z,0
2018-10-21T00:38:17.508Z,0
2018-10-21T00:39:18.216Z,0
2018-10-21T00:40:17.757Z,0
2018-10-21T00:41:17.483Z,0
2018-10-21T00:42:17.500Z,0
2018-10-21T00:43:17.689Z,0
2018-10-21T00:44:17.460Z,0
2018-10-21T00:45:17.471Z,0
2018-10-21T00:46:17.445Z,0
2018-10-21T00:47:17.140Z,0
2018-10-21T00:48:17.696Z,0
2018-10-21T00:49:17.132Z,0
2018-10-21T00:50:17.653Z,0
2018-10-21T00:51:17.962Z,0
2018-10-21T00:52:17.608Z,0
2018-10-21T00:53:17.597Z,0
2018-10-21T00:54:17.095Z,0
2018-10-21T00:55:17.352Z,0
2018-10-21T00:56:17.556Z,0
2018-10-21T00:57:18.157Z,0
2018-10-21T00:58:17.048Z,0
2018-10-21T00:59:17.252Z,0
2018-10-21T01:00:17.540Z,0
2018-10-21T01:01:17.494Z,0
2018-10-21T01:02:17.511Z,0
2018-10-21T01:03:17.935Z,0
2018-10-21T01:04:18.147Z,0
2018-10-21T01:05:17.198Z,0
2018-10-21T01:06:16.954Z,0
2018-10-21T01:07:17.412Z,0
2018-10-21T01:08:17.170Z,0
2018-10-21T01:09:18.154Z,0
2018-10-21T01:10:17.420Z,0
2018-10-21T01:11:17.113Z,0
2018-10-21T01:12:17.390Z,0
2018-10-21T01:13:17.122Z,0
2018-10-21T01:14:17.381Z,0
2018-10-21T01:15:18.198Z,0
2018-10-21T01:16:17.347Z,0
2018-10-21T01:17:17.292Z,0
2018-10-21T01:18:17.322Z,0
2018-10-21T01:19:17.277Z,0
2018-10-21T01:20:16.801Z,0
2018-10-21T01:21:17.854Z,0
2018-10-21T01:22:17.294Z,0
2018-10-21T01:23:17.237Z,0
2018-10-21T01:24:16.999Z,0
2018-10-21T01:25:16.977Z,0
2018-10-21T01:26:17.196Z,0
2018-10-21T01:27:17.391Z,0
2018-10-21T01:28:16.952Z,0
2018-10-21T01:29:16.923Z,0
2018-10-21T01:30:17.199Z,0
2018-10-21T01:31:17.133Z,0
2018-10-21T01:32:17.149Z,0
2018-10-21T01:33:17.940Z,0
2018-10-21T01:34:17.138Z,0
2018-10-21T01:35:17.101Z,0
2018-10-21T01:36:17.849Z,0
2018-10-21T01:37:17.639Z,0
2018-10-21T01:38:17.636Z,0
2018-10-21T01:39:17.640Z,0
2018-10-21T01:40:17.043Z,0
2018-10-21T01:41:17.059Z,0
2018-10-21T01:42:17.041Z,0
2018-10-21T01:43:17.035Z,0
2018-10-21T01:44:16.994Z,0
2018-10-21T01:45:17.276Z,0
2018-10-21T01:46:16.944Z,0
2018-10-21T01:47:16.988Z,0
2018-10-21T01:48:16.697Z,0
2018-10-21T01:49:16.939Z,0
2018-10-21T01:50:16.944Z,0
2018-10-21T01:51:16.739Z,0
2018-10-21T01:52:16.935Z,0
2018-10-21T01:53:16.641Z,0
2018-10-21T01:54:16.381Z,0
2018-10-21T01:55:16.585Z,0
2018-10-21T01:56:16.848Z,0
2018-10-21T01:57:17.467Z,0
2018-10-21T01:58:16.610Z,0
2018-10-21T01:59:16.588Z,0
2018-10-21T02:00:16.290Z,0
2018-10-21T02:01:16.289Z,0
2018-10-21T02:02:16.509Z,0
2018-10-21T02:03:17.494Z,0
2018-10-21T02:04:16.492Z,0
2018-10-21T02:05:16.312Z,0
2018-10-21T02:06:16.724Z,0
2018-10-21T02:07:16.751Z,0
2018-10-21T02:08:16.683Z,0
2018-10-21T02:09:17.435Z,0
2018-10-21T02:10:15.909Z,0
2018-10-21T02:11:16.708Z,0
2018-10-21T02:12:16.419Z,0
2018-10-21T02:13:16.866Z,0
2018-10-21T02:14:16.759Z,0
2018-10-21T02:15:16.741Z,0
2018-10-21T02:16:16.097Z,0
2018-10-21T02:17:16.601Z,0
2018-10-21T02:18:16.315Z,0
2018-10-21T02:19:16.615Z,0
2018-10-21T02:20:16.052Z,0
2018-10-21T02:21:16.751Z,0
2018-10-21T02:22:16.532Z,0
2018-10-21T02:23:16.042Z,0
2018-10-21T02:24:16.236Z,0
2018-10-21T02:25:16.528Z,0
2018-10-21T02:26:16.431Z,0
2018-10-21T02:27:16.641Z,0
2018-10-21T02:28:16.672Z,0
2018-10-21T02:29:16.459Z,0
2018-10-21T02:30:16.435Z,0
2018-10-21T02:31:16.418Z,0
2018-10-21T02:32:16.469Z,0
2018-10-21T02:33:17.154Z,0
2018-10-21T02:34:16.433Z,0
2018-10-21T02:35:16.363Z,0
2018-10-21T02:36:16.383Z,0
2018-10-21T02:37:16.075Z,0
2018-10-21T02:38:16.379Z,0
2018-10-21T02:39:16.579Z,0
2018-10-21T02:40:16.341Z,0
2018-10-21T02:41:16.328Z,0
2018-10-21T02:42:16.300Z,0
2018-10-21T02:43:15.811Z,0
2018-10-21T02:44:16.033Z,0
2018-10-21T02:45:16.673Z,0
2018-10-21T02:46:15.979Z,0
2018-10-21T02:47:16.217Z,0
2018-10-21T02:48:16.244Z,0
2018-10-21T02:49:15.972Z,0
2018-10-21T02:50:16.240Z,0
2018-10-21T02:51:16.319Z,0
2018-10-21T02:52:16.203Z,0
2018-10-21T02:53:16.144Z,0
2018-10-21T02:54:16.171Z,0
2018-10-21T02:55:16.123Z,0
2018-10-21T02:56:15.909Z,0
2018-10-21T02:57:16.889Z,0
2018-10-21T02:58:16.119Z,0
2018-10-21T02:59:16.083Z,0
2018-10-21T03:00:15.811Z,0
2018-10-21T03:01:15.573Z,0
2018-10-21T03:02:16.071Z,0
2018-10-21T03:03:16.273Z,0
2018-10-21T03:04:16.020Z,0
2018-10-21T03:05:16.032Z,0
2018-10-21T03:06:16.280Z,0
2018-10-21T03:07:15.982Z,0
2018-10-21T03:08:15.746Z,0
2018-10-21T03:09:16.484Z,0
2018-10-21T03:10:15.720Z,0
2018-10-21T03:11:15.933Z,0
2018-10-21T03:12:15.712Z,0
2018-10-21T03:13:15.921Z,0
2018-10-21T03:14:15.677Z,0
2018-10-21T03:15:16.356Z,0
2018-10-21T03:16:15.634Z,0
2018-10-21T03:17:15.873Z,0
2018-10-21T03:18:16.164Z,0
2018-10-21T03:19:15.640Z,0
2018-10-21T03:20:15.821Z,0
2018-10-21T03:21:16.560Z,0
2018-10-21T03:22:15.778Z,0
2018-10-21T03:23:15.818Z,0
2018-10-21T03:24:15.524Z,0
2018-10-21T03:25:15.805Z,0
2018-10-21T03:26:15.754Z,0
2018-10-21T03:27:15.640Z,0
2018-10-21T03:28:15.464Z,0
2018-10-21T03:29:15.499Z,0
2018-10-21T03:30:15.226Z,0
2018-10-21T03:31:15.538Z,0
2018-10-21T03:32:15.679Z,0
2018-10-21T03:33:17.133Z,0
2018-10-21T03:34:16.478Z,0
2018-10-21T03:35:15.442Z,0
2018-10-21T03:36:15.628Z,0
2018-10-21T03:37:15.666Z,0
2018-10-21T03:38:15.575Z,0
2018-10-21T03:39:15.729Z,0
2018-10-21T03:40:15.827Z,0
2018-10-21T03:41:15.612Z,0
2018-10-21T03:42:15.288Z,0
2018-10-21T03:43:15.563Z,0
2018-10-21T03:44:15.246Z,0
2018-10-21T03:45:15.266Z,0
2018-10-21T03:46:16.050Z,0
2018-10-21T03:47:15.262Z,0
2018-10-21T03:48:14.976Z,0
2018-10-21T03:49:15.468Z,0
2018-10-21T03:50:15.438Z,0
2018-10-21T03:51:15.169Z,0
2018-10-21T03:52:15.701Z,0
2018-10-21T03:53:15.154Z,0
2018-10-21T03:54:15.468Z,0
2018-10-21T03:55:14.855Z,0
2018-10-21T03:56:15.381Z,0
2018-10-21T03:57:15.363Z,0
2018-10-21T03:58:15.849Z,0
2018-10-21T03:59:15.095Z,0
2018-10-21T04:00:15.035Z,0
2018-10-21T04:01:15.308Z,0
2018-10-21T04:02:15.291Z,0
2018-10-21T04:03:15.313Z,0
2018-10-21T04:04:15.763Z,0
2018-10-21T04:05:15.264Z,0
2018-10-21T04:06:15.235Z,0
2018-10-21T04:07:15.206Z,0
2018-10-21T04:08:15.248Z,0
2018-10-21T04:09:15.458Z,0
2018-10-21T04:10:15.793Z,0
2018-10-21T04:11:14.898Z,0
2018-10-21T04:12:15.180Z,0
2018-10-21T04:13:15.127Z,0
2018-10-21T04:14:14.893Z,0
2018-10-21T04:15:14.855Z,0
2018-10-21T04:16:15.268Z,0
2018-10-21T04:17:15.098Z,0
2018-10-21T04:18:15.115Z,0
2018-10-21T04:19:15.055Z,0
2018-10-21T04:20:14.794Z,0
2018-10-21T04:21:14.789Z,0
2018-10-21T04:22:15.076Z,0
2018-10-21T04:23:14.997Z,0
2018-10-21T04:24:14.256Z,0
2018-10-21T04:25:15.022Z,0
2018-10-21T04:26:14.755Z,0
2018-10-21T04:27:14.690Z,0
2018-10-21T04:28:15.432Z,0
2018-10-21T04:29:14.657Z,0
2018-10-21T04:30:14.941Z,0
2018-10-21T04:31:14.895Z,0
2018-10-21T04:32:14.944Z,0
2018-10-21T04:33:14.891Z,0
2018-10-21T04:34:15.498Z,0
2018-10-21T04:35:14.391Z,0
2018-10-21T04:36:14.348Z,0
2018-10-21T04:37:14.326Z,0
2018-10-21T04:38:14.042Z,0
2018-10-21T04:39:14.533Z,0
2018-10-21T04:40:15.180Z,0
2018-10-21T04:41:14.534Z,0
2018-10-21T04:42:14.286Z,0
2018-10-21T04:43:14.225Z,0
2018-10-21T04:44:14.495Z,0
2018-10-21T04:45:14.698Z,0
2018-10-21T04:46:14.944Z,0
2018-10-21T04:47:15.860Z,0
2018-10-21T04:48:13.932Z,0
2018-10-21T04:49:14.423Z,0
2018-10-21T04:50:14.644Z,0
2018-10-21T04:51:14.167Z,0
2018-10-21T04:52:15.278Z,0
2018-10-21T04:53:14.634Z,0
2018-10-21T04:54:14.597Z,0
2018-10-21T04:55:14.579Z,0
2018-10-21T04:56:14.341Z,0
2018-10-21T04:57:14.311Z,0
2018-10-21T04:58:15.095Z,0
2018-10-21T04:59:14.521Z,0
2018-10-21T05:00:14.542Z,0
2018-10-21T05:01:14.485Z,0
2018-10-21T05:02:14.514Z,0
2018-10-21T05:03:14.462Z,0
2018-10-21T05:04:14.924Z,0
2018-10-21T05:05:14.458Z,0
2018-10-21T05:06:14.462Z,0
2018-10-21T05:07:14.407Z,0
2018-10-21T05:08:14.162Z,0
2018-10-21T05:09:14.412Z,0
2018-10-21T05:10:14.506Z,0
2018-10-21T05:11:14.657Z,0
2018-10-21T05:12:14.359Z,0
2018-10-21T05:13:14.391Z,0
2018-10-21T05:14:14.108Z,0
2018-10-21T05:15:14.220Z,0
2018-10-21T05:16:14.481Z,0
2018-10-21T05:17:13.777Z,0
2018-10-21T05:18:13.790Z,0
2018-10-21T05:19:13.995Z,0
2018-10-21T05:20:13.774Z,0
2018-10-21T05:21:13.987Z,0
2018-10-21T05:22:14.916Z,0
2018-10-21T05:23:13.942Z,0
2018-10-21T05:24:14.206Z,0
2018-10-21T05:25:13.987Z,0
2018-10-21T05:26:14.191Z,0
2018-10-21T05:27:13.934Z,0
2018-10-21T05:28:13.925Z,0
2018-10-21T05:29:14.132Z,0
2018-10-21T05:30:14.098Z,0
2018-10-21T05:31:13.880Z,5
2018-10-21T05:32:13.843Z,5
2018-10-21T05:33:14.111Z,5
2018-10-21T05:34:14.493Z,5
2018-10-21T05:35:13.310Z,5
2018-10-21T05:36:14.019Z,5
2018-10-21T05:37:14.035Z,5
2018-10-21T05:38:13.746Z,10
2018-10-21T05:39:13.780Z,10
2018-10-21T05:40:14.310Z,10
2018-10-21T05:41:13.715Z,10
2018-10-21T05:42:13.468Z,10
2018-10-21T05:43:13.716Z,15
2018-10-21T05:44:13.658Z,15
2018-10-21T05:45:13.922Z,15
2018-10-21T05:46:14.270Z,15
2018-10-21T05:47:14.320Z,20
2018-10-21T05:48:13.629Z,20
2018-10-21T05:49:13.890Z,20
2018-10-21T05:50:13.834Z,25
2018-10-21T05:51:13.869Z,25
2018-10-21T05:52:14.257Z,25
2018-10-21T05:53:13.810Z,30
2018-10-21T05:54:13.780Z,30
2018-10-21T05:55:13.809Z,30
2018-10-21T05:56:13.531Z,35
2018-10-21T05:57:13.511Z,35
2018-10-21T05:58:13.878Z,40
2018-10-21T05:59:13.201Z,40
2018-10-21T06:00:13.468Z,40
2018-10-21T06:01:13.701Z,45
2018-10-21T06:02:13.726Z,45
2018-10-21T06:03:13.552Z,50
2018-10-21T06:04:14.274Z,50
2018-10-21T06:05:13.391Z,50
2018-10-21T06:06:13.369Z,55
2018-10-21T06:07:13.133Z,55
2018-10-21T06:08:12.816Z,60
2018-10-21T06:09:13.591Z,60
2018-10-21T06:10:13.709Z,60
2018-10-21T06:11:13.592Z,60
2018-10-21T06:12:13.569Z,70
2018-10-21T06:13:13.284Z,80
2018-10-21T06:14:13.251Z,80
2018-10-21T06:15:12.979Z,85
2018-10-21T06:16:13.480Z,90
2018-10-21T06:17:13.231Z,95
2018-10-21T06:18:13.456Z,100
2018-10-21T06:19:13.479Z,100
2018-10-21T06:20:13.447Z,105
2018-10-21T06:21:13.465Z,110
2018-10-21T06:22:13.528Z,115
2018-10-21T06:23:13.429Z,120
2018-10-21T06:24:13.113Z,125
2018-10-21T06:25:13.390Z,130
2018-10-21T06:26:13.361Z,130
2018-10-21T06:27:13.385Z,135
2018-10-21T06:28:13.099Z,140
2018-10-21T06:29:13.384Z,145
2018-10-21T06:30:13.044Z,150
2018-10-21T06:31:13.480Z,155
2018-10-21T06:32:13.031Z,155
2018-10-21T06:33:13.711Z,160
2018-10-21T06:34:13.255Z,165
2018-10-21T06:35:13.037Z,175
2018-10-21T06:36:13.288Z,175
2018-10-21T06:37:12.758Z,180
2018-10-21T06:38:13.215Z,185
2018-10-21T06:39:13.690Z,195
2018-10-21T06:40:12.923Z,200
2018-10-21T06:41:12.942Z,165
2018-10-21T06:42:12.910Z,170
2018-10-21T06:43:12.941Z,200
2018-10-21T06:44:13.434Z,180
2018-10-21T06:45:13.323Z,165
2018-10-21T06:46:12.895Z,220
2018-10-21T06:47:13.111Z,215
2018-10-21T06:48:13.151Z,225
2018-10-21T06:49:13.375Z,175
2018-10-21T06:50:12.882Z,215
2018-10-21T06:51:13.601Z,210
2018-10-21T06:52:13.106Z,215
2018-10-21T06:53:13.045Z,215
2018-10-21T06:54:12.829Z,220
2018-10-21T06:55:12.792Z,225
2018-10-21T06:56:13.149Z,225
2018-10-21T06:57:13.692Z,230
2018-10-21T06:58:13.024Z,245
2018-10-21T06:59:12.791Z,240
2018-10-21T07:00:12.770Z,240
2018-10-21T07:01:12.764Z,240
2018-10-21T07:02:12.727Z,240
2018-10-21T07:03:12.712Z,225
2018-10-21T07:04:12.797Z,260
2018-10-21T07:05:13.438Z,260
2018-10-21T07:06:12.732Z,275
2018-10-21T07:07:12.680Z,275
2018-10-21T07:08:12.948Z,285
2018-10-21T07:09:12.904Z,280
2018-10-21T07:10:13.373Z,285
2018-10-21T07:11:12.894Z,295
2018-10-21T07:12:12.939Z,300
2018-10-21T07:13:12.900Z,305
2018-10-21T07:14:12.658Z,310
2018-10-21T07:15:12.812Z,315
2018-10-21T07:16:12.635Z,320
2018-10-21T07:17:12.615Z,320
2018-10-21T07:18:12.625Z,325
2018-10-21T07:19:12.880Z,325
2018-10-21T07:20:12.336Z,325
2018-10-21T07:21:12.325Z,330
2018-10-21T07:22:12.271Z,335
2018-10-21T07:23:12.807Z,300
2018-10-21T07:24:12.832Z,210
2018-10-21T07:25:12.531Z,155
2018-10-21T07:26:12.827Z,150
2018-10-21T07:27:12.271Z,150
2018-10-21T07:28:13.697Z,155
2018-10-21T07:29:12.802Z,150
2018-10-21T07:30:12.278Z,150
2018-10-21T07:31:12.739Z,150
2018-10-21T07:32:12.509Z,150
2018-10-21T07:33:12.746Z,150
2018-10-21T07:34:13.101Z,150
2018-10-21T07:35:12.772Z,150
2018-10-21T07:36:12.869Z,150
2018-10-21T07:37:12.718Z,150
2018-10-21T07:38:12.682Z,150
2018-10-21T07:39:12.732Z,150
2018-10-21T07:40:12.467Z,150
2018-10-21T07:41:12.774Z,150
2018-10-21T07:42:12.414Z,150
2018-10-21T07:43:12.697Z,150
2018-10-21T07:44:12.634Z,150
2018-10-21T07:45:12.155Z,150
2018-10-21T07:46:12.699Z,150
2018-10-21T07:47:12.915Z,150
2018-10-21T07:48:12.383Z,150
2018-10-21T07:49:13.301Z,150
2018-10-21T07:50:12.377Z,150
2018-10-21T07:51:12.631Z,150
2018-10-21T07:52:12.686Z,150
2018-10-21T07:53:12.328Z,150
2018-10-21T07:54:12.560Z,150
2018-10-21T07:55:12.825Z,150
2018-10-21T07:56:12.558Z,150
2018-10-21T07:57:12.575Z,150
2018-10-21T07:58:13.043Z,150
2018-10-21T07:59:12.555Z,150
2018-10-21T08:00:12.253Z,150
2018-10-21T08:01:12.575Z,150
2018-10-21T08:02:12.258Z,150
2018-10-21T08:03:11.961Z,150
2018-10-21T08:04:12.550Z,150
2018-10-21T08:05:12.475Z,150
2018-10-21T08:06:12.233Z,150
2018-10-21T08:07:11.972Z,150
2018-10-21T08:08:12.194Z,150
2018-10-21T08:09:12.438Z,150
2018-10-21T08:10:12.909Z,150
2018-10-21T08:11:12.184Z,150
2018-10-21T08:12:11.895Z,150
2018-10-21T08:13:12.147Z,150
2018-10-21T08:14:12.409Z,150
2018-10-21T08:15:12.547Z,150
2018-10-21T08:16:13.013Z,150
2018-10-21T08:17:11.850Z,150
2018-10-21T08:18:12.633Z,150
2018-10-21T08:19:12.322Z,150
2018-10-21T08:20:12.076Z,150
2018-10-21T08:21:12.548Z,150
2018-10-21T08:22:12.752Z,150
2018-10-21T08:23:12.332Z,150
2018-10-21T08:24:12.288Z,150
2018-10-21T08:25:12.034Z,155
2018-10-21T08:26:12.051Z,150
2018-10-21T08:27:12.006Z,150
2018-10-21T08:28:12.444Z,150
2018-10-21T08:29:12.031Z,150
2018-10-21T08:30:11.726Z,150
2018-10-21T08:31:12.258Z,150
2018-10-21T08:32:11.696Z,150
2018-10-21T08:33:12.227Z,150
2018-10-21T08:34:12.391Z,150
2018-10-21T08:35:11.716Z,150
2018-10-21T08:36:12.540Z,150
2018-10-21T08:37:12.184Z,150
2018-10-21T08:38:11.895Z,150
2018-10-21T08:39:12.196Z,150
2018-10-21T08:40:12.251Z,150
2018-10-21T08:41:11.889Z,150
2018-10-21T08:42:11.857Z,150
2018-10-21T08:43:11.922Z,150
2018-10-21T08:44:11.865Z,150
2018-10-21T08:45:11.625Z,150
2018-10-21T08:46:12.699Z,150
2018-10-21T08:47:11.857Z,150
2018-10-21T08:48:11.799Z,150
2018-10-21T08:49:12.087Z,150
2018-10-21T08:50:12.133Z,150
2018-10-21T08:51:12.088Z,150
2018-10-21T08:52:12.089Z,150
2018-10-21T08:53:12.038Z,150
2018-10-21T08:54:11.806Z,150
2018-10-21T08:55:12.222Z,150
2018-10-21T08:56:12.098Z,150
2018-10-21T08:57:11.502Z,150
2018-10-21T08:58:12.468Z,150
2018-10-21T08:59:11.711Z,150
2018-10-21T09:00:11.480Z,150
2018-10-21T09:01:11.594Z,150
2018-10-21T09:02:12.689Z,150
2018-10-21T09:03:11.937Z,150
2018-10-21T09:04:12.417Z,150
2018-10-21T09:05:11.685Z,150
2018-10-21T09:06:11.917Z,150
2018-10-21T09:07:12.018Z,150
2018-10-21T09:08:11.414Z,150
2018-10-21T09:09:11.937Z,150
2018-10-21T09:10:11.739Z,150
2018-10-21T09:11:12.379Z,150
2018-10-21T09:12:11.628Z,150
2018-10-21T09:13:11.578Z,150
2018-10-21T09:14:11.883Z,150
2018-10-21T09:15:12.129Z,150
2018-10-21T09:16:12.096Z,150
2018-10-21T09:17:11.559Z,150
2018-10-21T09:18:11.856Z,150
2018-10-21T09:19:11.906Z,150
2018-10-21T09:20:12.091Z,150
2018-10-21T09:21:11.806Z,145
2018-10-21T09:22:12.220Z,145
2018-10-21T09:23:11.511Z,145
2018-10-21T09:24:11.258Z,145
2018-10-21T09:25:12.230Z,145
2018-10-21T09:26:11.782Z,145
2018-10-21T09:27:11.523Z,145
2018-10-21T09:28:12.161Z,145
2018-10-21T09:29:11.477Z,145
2018-10-21T09:30:11.490Z,145
2018-10-21T09:31:12.021Z,145
2018-10-21T09:32:11.474Z,145
2018-10-21T09:33:11.460Z,145
2018-10-21T09:34:11.561Z,145
2018-10-21T09:35:11.412Z,145
2018-10-21T09:36:11.200Z,145
2018-10-21T09:37:11.381Z,145
2018-10-21T09:38:11.174Z,145
2018-10-21T09:39:11.385Z,145
2018-10-21T09:40:11.441Z,145
2018-10-21T09:41:11.639Z,145
2018-10-21T09:42:11.971Z,145
2018-10-21T09:43:12.141Z,145
2018-10-21T09:44:11.351Z,145
2018-10-21T09:45:11.619Z,145
2018-10-21T09:46:11.749Z,145
2018-10-21T09:47:11.361Z,145
2018-10-21T09:48:11.573Z,145
2018-10-21T09:49:11.415Z,145
2018-10-21T09:50:11.569Z,145
2018-10-21T09:51:11.578Z,145
2018-10-21T09:52:10.979Z,145
2018-10-21T09:53:11.549Z,145
2018-10-21T09:54:11.012Z,145
2018-10-21T09:55:12.048Z,145
2018-10-21T09:56:11.514Z,145
2018-10-21T09:57:11.259Z,145
2018-10-21T09:58:12.094Z,145
2018-10-21T09:59:11.270Z,145
2018-10-21T10:00:10.985Z,145
2018-10-21T10:01:11.290Z,145
2018-10-21T10:02:10.978Z,145
2018-10-21T10:03:11.251Z,145
2018-10-21T10:04:11.114Z,145
2018-10-21T10:05:11.107Z,145
2018-10-21T10:06:11.448Z,145
2018-10-21T10:07:11.001Z,145
2018-10-21T10:08:11.402Z,145
2018-10-21T10:09:11.176Z,145
2018-10-21T10:10:11.560Z,145
2018-10-21T10:11:11.184Z,145
2018-10-21T10:12:11.416Z,145
2018-10-21T10:13:11.955Z,145
2018-10-21T10:14:11.115Z,145
2018-10-21T10:15:10.850Z,145
2018-10-21T10:16:11.526Z,145
2018-10-21T10:17:11.109Z,145
2018-10-21T10:18:11.383Z,140
2018-10-21T10:19:11.726Z,140
2018-10-21T10:20:10.841Z,140
2018-10-21T10:21:11.081Z,140
2018-10-21T10:22:11.709Z,140
2018-10-21T10:23:11.155Z,140
2018-10-21T10:24:11.253Z,140
2018-10-21T10:25:11.137Z,140
2018-10-21T10:26:10.570Z,140
2018-10-21T10:27:10.543Z,140
2018-10-21T10:28:11.730Z,140
2018-10-21T10:29:11.024Z,140
2018-10-21T10:30:10.752Z,140
2018-10-21T10:31:11.339Z,140
2018-10-21T10:32:10.753Z,140
2018-10-21T10:33:11.001Z,140
2018-10-21T10:34:11.720Z,140
2018-10-21T10:35:10.710Z,140
2018-10-21T10:36:11.484Z,145
2018-10-21T10:37:11.311Z,145
2018-10-21T10:38:10.722Z,140
2018-10-21T10:39:10.665Z,140
2018-10-21T10:40:11.390Z,140
2018-10-21T10:41:10.678Z,140
2018-10-21T10:42:11.232Z,140
2018-10-21T10:43:11.393Z,140
2018-10-21T10:44:10.641Z,140
2018-10-21T10:45:10.917Z,140
2018-10-21T10:46:11.579Z,145
2018-10-21T10:47:10.864Z,145
2018-10-21T10:48:11.149Z,145
2018-10-21T10:49:11.250Z,145
2018-10-21T10:50:10.892Z,145
2018-10-21T10:51:10.849Z,145
2018-10-21T10:52:11.178Z,145
2018-10-21T10:53:11.302Z,145
2018-10-21T10:54:11.104Z,145
2018-10-21T10:55:11.582Z,150
2018-10-21T10:56:10.591Z,145
2018-10-21T10:57:10.806Z,145
2018-10-21T10:58:11.678Z,145
2018-10-21T10:59:11.037Z,145
2018-10-21T11:00:11.944Z,145
2018-10-21T11:01:11.588Z,145
2018-10-21T11:02:10.546Z,145
2018-10-21T11:03:10.794Z,145
2018-10-21T11:04:11.380Z,145
2018-10-21T11:05:10.755Z,145
2018-10-21T11:06:11.177Z,145
2018-10-21T11:07:10.652Z,140
2018-10-21T11:08:10.724Z,140
2018-10-21T11:09:11.053Z,140
2018-10-21T11:10:11.458Z,140
2018-10-21T11:11:10.738Z,145
2018-10-21T11:12:10.950Z,145
2018-10-21T11:13:11.174Z,140
2018-10-21T11:14:10.710Z,140
2018-10-21T11:15:10.664Z,140
2018-10-21T11:16:10.916Z,145
2018-10-21T11:17:10.682Z,150
2018-10-21T11:18:10.939Z,155
2018-10-21T11:19:11.285Z,155
2018-10-21T11:20:10.657Z,160
2018-10-21T11:21:10.899Z,160
2018-10-21T11:22:11.471Z,160
2018-10-21T11:23:10.916Z,165
2018-10-21T11:24:10.872Z,160
2018-10-21T11:25:10.998Z,155
2018-10-21T11:26:10.379Z,145
2018-10-21T11:27:10.330Z,145
2018-10-21T11:28:11.317Z,140
2018-10-21T11:29:10.592Z,140
2018-10-21T11:30:10.852Z,140
2018-10-21T11:31:10.823Z,135
2018-10-21T11:32:10.563Z,135
2018-10-21T11:33:10.566Z,135
2018-10-21T11:34:10.956Z,135
2018-10-21T11:35:10.335Z,135
2018-10-21T11:36:10.529Z,140
2018-10-21T11:37:11.504Z,140
2018-10-21T11:38:10.804Z,135
2018-10-21T11:39:10.752Z,135
2018-10-21T11:40:10.979Z,135
2018-10-21T11:41:10.229Z,135
2018-10-21T11:42:10.520Z,135
2018-10-21T11:43:10.964Z,140
2018-10-21T11:44:10.518Z,145
2018-10-21T11:45:10.476Z,160
2018-10-21T11:46:11.113Z,170
2018-10-21T11:47:10.438Z,170
2018-10-21T11:48:10.719Z,160
2018-10-21T11:49:10.739Z,155
2018-10-21T11:50:10.473Z,160
2018-10-21T11:51:10.735Z,165
2018-10-21T11:52:11.159Z,180
2018-10-21T11:53:10.692Z,170
2018-10-21T11:54:10.408Z,155
2018-10-21T11:55:10.776Z,155
2018-10-21T11:56:10.655Z,170
2018-10-21T11:57:10.438Z,170
2018-10-21T11:58:10.765Z,165
2018-10-21T11:59:10.670Z,165
2018-10-21T12:00:10.359Z,160
2018-10-21T12:01:10.656Z,155
2018-10-21T12:02:10.365Z,160
2018-10-21T12:03:10.644Z,160
2018-10-21T12:04:10.874Z,155
2018-10-21T12:05:10.358Z,150
2018-10-21T12:06:10.351Z,150
2018-10-21T12:07:10.744Z,150
2018-10-21T12:08:10.317Z,150
2018-10-21T12:09:10.593Z,145
2018-10-21T12:10:10.931Z,145
2018-10-21T12:11:10.603Z,140
2018-10-21T12:12:10.054Z,140
2018-10-21T12:13:11.049Z,140
2018-10-21T12:14:10.019Z,140
2018-10-21T12:15:10.575Z,140
2018-10-21T12:16:10.962Z,140
2018-10-21T12:17:10.527Z,140
2018-10-21T12:18:10.252Z,140
2018-10-21T12:19:10.967Z,140
2018-10-21T12:20:10.522Z,135
2018-10-21T12:21:10.507Z,135
2018-10-21T12:22:10.850Z,135
2018-10-21T12:23:11.675Z,130
2018-10-21T12:24:10.234Z,130
2018-10-21T12:25:11.210Z,130
2018-10-21T12:26:10.246Z,135
2018-10-21T12:27:10.693Z,140
2018-10-21T12:28:10.550Z,135
2018-10-21T12:29:10.501Z,140
2018-10-21T12:30:09.677Z,145
2018-10-21T12:31:11.146Z,150
2018-10-21T12:32:09.894Z,155
2018-10-21T12:33:10.433Z,160
2018-10-21T12:34:10.847Z,160
2018-10-21T12:35:10.654Z,160
2018-10-21T12:36:10.178Z,155
2018-10-21T12:37:10.464Z,150
2018-10-21T12:38:10.387Z,145
2018-10-21T12:39:10.113Z,145
2018-10-21T12:40:09.738Z,140
2018-10-21T12:41:10.099Z,140
2018-10-21T12:42:10.136Z,145
2018-10-21T12:43:10.497Z,140
2018-10-21T12:44:10.112Z,135
2018-10-21T12:45:09.874Z,140
2018-10-21T12:46:10.166Z,140
2018-10-21T12:47:10.719Z,140
2018-10-21T12:48:10.368Z,135
2018-10-21T12:49:10.454Z,135
2018-10-21T12:50:09.839Z,135
2018-10-21T12:51:10.283Z,135
2018-10-21T12:52:10.788Z,135
2018-10-21T12:53:10.232Z,135
2018-10-21T12:54:10.953Z,135
2018-10-21T12:55:10.177Z,135
2018-10-21T12:56:09.772Z,135
2018-10-21T12:57:09.767Z,130
2018-10-21T12:58:10.944Z,130
2018-10-21T12:59:09.982Z,130
2018-10-21T13:00:10.013Z,130
2018-10-21T13:01:10.679Z,135
2018-10-21T13:02:10.436Z,135
2018-10-21T13:03:10.204Z,135
2018-10-21T13:04:10.703Z,135
2018-10-21T13:05:09.965Z,135
2018-10-21T13:06:10.232Z,135
2018-10-21T13:07:10.523Z,135
2018-10-21T13:08:10.212Z,140
2018-10-21T13:09:09.936Z,140
2018-10-21T13:10:10.418Z,145
2018-10-21T13:11:09.926Z,140
2018-10-21T13:12:10.188Z,140
2018-10-21T13:13:11.023Z,140
2018-10-21T13:14:10.200Z,145
2018-10-21T13:15:09.625Z,145
2018-10-21T13:16:09.837Z,140
2018-10-21T13:17:10.114Z,135
2018-10-21T13:18:09.443Z,130
2018-10-21T13:19:10.202Z,125
2018-10-21T13:20:09.623Z,125
2018-10-21T13:21:10.125Z,125
2018-10-21T13:22:09.996Z,125
2018-10-21T13:23:09.872Z,125
2018-10-21T13:24:09.859Z,125
2018-10-21T13:25:10.452Z,125
2018-10-21T13:26:10.073Z,125
2018-10-21T13:27:09.540Z,125
2018-10-21T13:28:10.166Z,125
2018-10-21T13:29:10.485Z,125
2018-10-21T13:30:09.573Z,120
2018-10-21T13:31:09.394Z,120
2018-10-21T13:32:10.049Z,120
2018-10-21T13:33:10.006Z,120
2018-10-21T13:34:09.760Z,120
2018-10-21T13:35:10.010Z,120
2018-10-21T13:36:10.039Z,120
2018-10-21T13:37:09.873Z,120
2018-10-21T13:38:09.503Z,120
2018-10-21T13:39:09.711Z,120
2018-10-21T13:40:10.597Z,120
2018-10-21T13:41:09.975Z,120
2018-10-21T13:42:09.989Z,120
2018-10-21T13:43:10.091Z,120
2018-10-21T13:44:09.451Z,115
2018-10-21T13:45:09.444Z,115
2018-10-21T13:47:09.666Z,115
2018-10-21T13:48:09.965Z,115
2018-10-21T13:49:09.775Z,115
2018-10-21T13:50:09.413Z,115
2018-10-21T13:51:09.902Z,115
2018-10-21T13:52:11.405Z,115
2018-10-21T13:53:10.351Z,115
2018-10-21T13:54:09.639Z,115
2018-10-21T13:55:09.894Z,115
2018-10-21T13:56:09.609Z,115
2018-10-21T13:57:09.882Z,115
2018-10-21T13:58:09.868Z,115
2018-10-21T13:59:09.978Z,115
2018-10-21T14:00:09.572Z,115
2018-10-21T14:01:10.191Z,110
2018-10-21T14:02:09.811Z,110
2018-10-21T14:03:09.847Z,110
2018-10-21T14:04:09.838Z,110
2018-10-21T14:05:09.593Z,110
2018-10-21T14:06:09.569Z,110
2018-10-21T14:07:10.073Z,110
2018-10-21T14:08:09.776Z,110
2018-10-21T14:09:09.522Z,110
2018-10-21T14:10:09.500Z,110
2018-10-21T14:11:09.788Z,110